sensor_id;sensor_type;location;lat;lon;timestamp;temperature;humidity
21627;DHT22;10975;47.872;12.972;2023-07-02T00:01:51;19.20;99.90
21627;DHT22;10975;47.872;12.972;2023-07-02T00:04:18;19.10;99.90
21627;DHT22;10975;47.872;12.972;2023-07-02T00:06:46;19.10;99.90
21627;DHT22;10975;47.872;12.972;2023-07-02T00:09:15;19.10;99.90
21627;DHT22;10975;47.872;12.972;2023-07-02T00:11:43;19.00;99.90
21627;DHT22;10975;47.872;12.972;2023-07-02T00:14:10;18.80;99.90
21627;DHT22;10975;47.872;12.972;2023-07-02T00:16:37;18.60;99.90
21627;DHT22;10975;47.872;12.972;2023-07-02T00:19:04;18.50;99.90
21627;DHT22;10975;47.872;12.972;2023-07-02T00:21:31;18.50;99.90
21627;DHT22;10975;47.872;12.972;2023-07-02T00:24:00;18.50;99.90
21627;DHT22;10975;47.872;12.972;2023-07-02T00:26:27;18.50;99.90
21627;DHT22;10975;47.872;12.972;2023-07-02T00:28:54;18.40;99.90
21627;DHT22;10975;47.872;12.972;2023-07-02T00:31:22;18.30;99.90
21627;DHT22;10975;47.872;12.972;2023-07-02T00:33:49;18.30;99.90
21627;DHT22;10975;47.872;12.972;2023-07-02T00:36:16;18.20;99.90
21627;DHT22;10975;47.872;12.972;2023-07-02T00:38:46;18.20;99.90
21627;DHT22;10975;47.872;12.972;2023-07-02T00:41:14;18.20;99.90
21627;DHT22;10975;47.872;12.972;2023-07-02T00:43:40;18.20;99.90
21627;DHT22;10975;47.872;12.972;2023-07-02T00:46:11;18.20;99.90
21627;DHT22;10975;47.872;12.972;2023-07-02T00:48:39;18.10;99.90
21627;DHT22;10975;47.872;12.972;2023-07-02T00:51:06;18.00;99.90
21627;DHT22;10975;47.872;12.972;2023-07-02T00:53:33;18.00;99.90
21627;DHT22;10975;47.872;12.972;2023-07-02T00:56:01;17.90;99.90
21627;DHT22;10975;47.872;12.972;2023-07-02T00:58:27;17.90;99.90
21627;DHT22;10975;47.872;12.972;2023-07-02T01:00:54;18.00;99.90
21627;DHT22;10975;47.872;12.972;2023-07-02T01:03:23;18.10;99.90
21627;DHT22;10975;47.872;12.972;2023-07-02T01:05:49;18.10;99.90
21627;DHT22;10975;47.872;12.972;2023-07-02T01:08:16;18.20;99.90
21627;DHT22;10975;47.872;12.972;2023-07-02T01:10:43;18.30;99.90
21627;DHT22;10975;47.872;12.972;2023-07-02T01:13:11;18.30;99.90
21627;DHT22;10975;47.872;12.972;2023-07-02T01:15:39;18.30;99.90
21627;DHT22;10975;47.872;12.972;2023-07-02T01:18:05;18.30;99.90
21627;DHT22;10975;47.872;12.972;2023-07-02T01:20:34;18.40;99.90
21627;DHT22;10975;47.872;12.972;2023-07-02T01:23:01;18.40;99.90
21627;DHT22;10975;47.872;12.972;2023-07-02T01:25:29;18.40;99.90
21627;DHT22;10975;47.872;12.972;2023-07-02T01:27:56;18.40;99.90
21627;DHT22;10975;47.872;12.972;2023-07-02T01:30:25;18.40;99.90
21627;DHT22;10975;47.872;12.972;2023-07-02T01:32:52;18.50;99.90
21627;DHT22;10975;47.872;12.972;2023-07-02T01:35:19;18.50;99.90
21627;DHT22;10975;47.872;12.972;2023-07-02T01:37:46;18.40;99.90
21627;DHT22;10975;47.872;12.972;2023-07-02T01:40:13;18.30;99.90
21627;DHT22;10975;47.872;12.972;2023-07-02T01:42:39;18.30;99.90
21627;DHT22;10975;47.872;12.972;2023-07-02T01:45:06;18.30;99.90
21627;DHT22;10975;47.872;12.972;2023-07-02T01:47:33;18.30;99.90
21627;DHT22;10975;47.872;12.972;2023-07-02T01:50:01;18.30;99.90
21627;DHT22;10975;47.872;12.972;2023-07-02T01:52:28;18.30;99.90
21627;DHT22;10975;47.872;12.972;2023-07-02T01:55:00;18.30;99.90
21627;DHT22;10975;47.872;12.972;2023-07-02T01:57:27;18.30;99.90
21627;DHT22;10975;47.872;12.972;2023-07-02T01:59:53;18.20;99.90
21627;DHT22;10975;47.872;12.972;2023-07-02T02:02:20;18.30;99.90
21627;DHT22;10975;47.872;12.972;2023-07-02T02:04:47;18.30;99.90
21627;DHT22;10975;47.872;12.972;2023-07-02T02:07:13;18.20;99.90
21627;DHT22;10975;47.872;12.972;2023-07-02T02:09:40;18.30;99.90
21627;DHT22;10975;47.872;12.972;2023-07-02T02:12:07;18.10;99.90
21627;DHT22;10975;47.872;12.972;2023-07-02T02:14:34;18.10;99.90
21627;DHT22;10975;47.872;12.972;2023-07-02T02:17:00;18.10;99.90
21627;DHT22;10975;47.872;12.972;2023-07-02T02:19:27;18.10;99.90
21627;DHT22;10975;47.872;12.972;2023-07-02T02:21:54;18.10;99.90
21627;DHT22;10975;47.872;12.972;2023-07-02T02:24:20;18.20;99.90
21627;DHT22;10975;47.872;12.972;2023-07-02T02:26:48;18.20;99.90
21627;DHT22;10975;47.872;12.972;2023-07-02T02:29:14;18.20;99.90
21627;DHT22;10975;47.872;12.972;2023-07-02T02:31:42;18.20;99.90
21627;DHT22;10975;47.872;12.972;2023-07-02T02:34:09;18.20;99.90
21627;DHT22;10975;47.872;12.972;2023-07-02T02:36:35;18.20;99.90
21627;DHT22;10975;47.872;12.972;2023-07-02T02:39:02;18.20;99.90
21627;DHT22;10975;47.872;12.972;2023-07-02T02:41:29;18.20;99.90
21627;DHT22;10975;47.872;12.972;2023-07-02T02:43:59;18.20;99.90
21627;DHT22;10975;47.872;12.972;2023-07-02T02:46:25;18.20;99.90
21627;DHT22;10975;47.872;12.972;2023-07-02T02:48:52;18.20;99.90
21627;DHT22;10975;47.872;12.972;2023-07-02T02:51:19;18.20;99.90
21627;DHT22;10975;47.872;12.972;2023-07-02T02:53:45;18.20;99.90
21627;DHT22;10975;47.872;12.972;2023-07-02T02:56:13;18.20;99.90
21627;DHT22;10975;47.872;12.972;2023-07-02T02:58:39;18.20;99.90
21627;DHT22;10975;47.872;12.972;2023-07-02T03:01:06;18.20;99.90
21627;DHT22;10975;47.872;12.972;2023-07-02T03:03:40;18.10;99.90
21627;DHT22;10975;47.872;12.972;2023-07-02T03:06:12;18.10;99.90
21627;DHT22;10975;47.872;12.972;2023-07-02T03:08:39;18.10;99.90
21627;DHT22;10975;47.872;12.972;2023-07-02T03:11:13;18.10;99.90
21627;DHT22;10975;47.872;12.972;2023-07-02T03:13:39;18.00;99.90
21627;DHT22;10975;47.872;12.972;2023-07-02T03:16:06;17.90;99.90
21627;DHT22;10975;47.872;12.972;2023-07-02T03:18:33;17.90;99.90
21627;DHT22;10975;47.872;12.972;2023-07-02T03:21:00;17.80;99.90
21627;DHT22;10975;47.872;12.972;2023-07-02T03:23:26;17.70;99.90
21627;DHT22;10975;47.872;12.972;2023-07-02T03:25:53;17.70;99.90
21627;DHT22;10975;47.872;12.972;2023-07-02T03:28:20;17.70;99.90
21627;DHT22;10975;47.872;12.972;2023-07-02T03:30:46;17.70;99.90
21627;DHT22;10975;47.872;12.972;2023-07-02T03:33:14;17.80;99.90
21627;DHT22;10975;47.872;12.972;2023-07-02T03:35:40;17.90;99.90
21627;DHT22;10975;47.872;12.972;2023-07-02T03:38:07;17.90;99.90
21627;DHT22;10975;47.872;12.972;2023-07-02T03:40:34;18.00;99.90
21627;DHT22;10975;47.872;12.972;2023-07-02T03:43:00;17.90;99.90
21627;DHT22;10975;47.872;12.972;2023-07-02T03:45:27;18.00;99.90
21627;DHT22;10975;47.872;12.972;2023-07-02T03:47:54;18.00;99.90
21627;DHT22;10975;47.872;12.972;2023-07-02T03:50:21;18.00;99.90
21627;DHT22;10975;47.872;12.972;2023-07-02T03:52:48;18.10;99.90
21627;DHT22;10975;47.872;12.972;2023-07-02T03:55:14;18.10;99.90
21627;DHT22;10975;47.872;12.972;2023-07-02T03:57:41;18.10;99.90
21627;DHT22;10975;47.872;12.972;2023-07-02T04:00:08;18.10;99.90
21627;DHT22;10975;47.872;12.972;2023-07-02T04:02:36;18.10;99.90
21627;DHT22;10975;47.872;12.972;2023-07-02T04:05:03;18.10;99.90
21627;DHT22;10975;47.872;12.972;2023-07-02T04:07:30;18.10;99.90
21627;DHT22;10975;47.872;12.972;2023-07-02T04:09:57;18.10;99.90
21627;DHT22;10975;47.872;12.972;2023-07-02T04:12:24;18.10;99.90
21627;DHT22;10975;47.872;12.972;2023-07-02T04:14:51;18.10;99.90
21627;DHT22;10975;47.872;12.972;2023-07-02T04:17:18;18.10;99.90
21627;DHT22;10975;47.872;12.972;2023-07-02T04:19:45;18.10;99.90
21627;DHT22;10975;47.872;12.972;2023-07-02T04:22:12;18.10;99.90
21627;DHT22;10975;47.872;12.972;2023-07-02T04:24:38;18.10;99.90
21627;DHT22;10975;47.872;12.972;2023-07-02T04:27:06;18.10;99.90
21627;DHT22;10975;47.872;12.972;2023-07-02T04:29:53;18.10;99.90
21627;DHT22;10975;47.872;12.972;2023-07-02T04:32:19;18.10;99.90
21627;DHT22;10975;47.872;12.972;2023-07-02T04:34:46;18.10;99.90
21627;DHT22;10975;47.872;12.972;2023-07-02T04:37:13;18.20;99.90
21627;DHT22;10975;47.872;12.972;2023-07-02T04:39:41;18.20;99.90
21627;DHT22;10975;47.872;12.972;2023-07-02T04:42:08;18.20;99.90
21627;DHT22;10975;47.872;12.972;2023-07-02T04:44:36;18.20;99.90
21627;DHT22;10975;47.872;12.972;2023-07-02T04:47:03;18.20;99.90
21627;DHT22;10975;47.872;12.972;2023-07-02T04:49:29;18.30;99.90
21627;DHT22;10975;47.872;12.972;2023-07-02T04:51:56;18.30;99.90
21627;DHT22;10975;47.872;12.972;2023-07-02T04:54:23;18.30;99.90
21627;DHT22;10975;47.872;12.972;2023-07-02T04:56:49;18.30;99.90
21627;DHT22;10975;47.872;12.972;2023-07-02T04:59:17;18.30;99.90
21627;DHT22;10975;47.872;12.972;2023-07-02T05:01:43;18.30;99.90
21627;DHT22;10975;47.872;12.972;2023-07-02T05:04:11;18.30;99.90
21627;DHT22;10975;47.872;12.972;2023-07-02T05:06:38;18.20;99.90
21627;DHT22;10975;47.872;12.972;2023-07-02T05:09:05;18.20;99.90
21627;DHT22;10975;47.872;12.972;2023-07-02T05:11:31;18.20;99.90
21627;DHT22;10975;47.872;12.972;2023-07-02T05:13:58;18.20;99.90
21627;DHT22;10975;47.872;12.972;2023-07-02T05:16:25;18.20;99.90
21627;DHT22;10975;47.872;12.972;2023-07-02T05:18:51;18.20;99.90
21627;DHT22;10975;47.872;12.972;2023-07-02T05:21:18;18.20;99.90
21627;DHT22;10975;47.872;12.972;2023-07-02T05:23:45;18.10;99.90
21627;DHT22;10975;47.872;12.972;2023-07-02T05:26:12;18.00;99.90
21627;DHT22;10975;47.872;12.972;2023-07-02T05:28:38;17.90;99.90
21627;DHT22;10975;47.872;12.972;2023-07-02T05:31:05;17.90;99.90
21627;DHT22;10975;47.872;12.972;2023-07-02T05:33:32;18.00;99.90
21627;DHT22;10975;47.872;12.972;2023-07-02T05:35:59;17.90;99.90
21627;DHT22;10975;47.872;12.972;2023-07-02T05:38:26;17.60;99.90
21627;DHT22;10975;47.872;12.972;2023-07-02T05:40:53;17.20;99.90
21627;DHT22;10975;47.872;12.972;2023-07-02T05:43:19;16.90;99.90
21627;DHT22;10975;47.872;12.972;2023-07-02T05:45:46;16.70;99.90
21627;DHT22;10975;47.872;12.972;2023-07-02T05:48:13;16.60;99.90
21627;DHT22;10975;47.872;12.972;2023-07-02T05:50:39;16.70;99.90
21627;DHT22;10975;47.872;12.972;2023-07-02T05:53:06;16.70;99.90
21627;DHT22;10975;47.872;12.972;2023-07-02T05:55:33;16.70;99.90
21627;DHT22;10975;47.872;12.972;2023-07-02T05:58:00;16.70;99.90
21627;DHT22;10975;47.872;12.972;2023-07-02T06:00:29;16.70;99.90
21627;DHT22;10975;47.872;12.972;2023-07-02T06:02:56;16.80;99.90
21627;DHT22;10975;47.872;12.972;2023-07-02T06:05:22;16.80;99.90
21627;DHT22;10975;47.872;12.972;2023-07-02T06:07:49;16.90;99.90
21627;DHT22;10975;47.872;12.972;2023-07-02T06:10:16;17.00;99.90
21627;DHT22;10975;47.872;12.972;2023-07-02T06:12:43;17.10;99.90
21627;DHT22;10975;47.872;12.972;2023-07-02T06:15:10;17.20;99.90
21627;DHT22;10975;47.872;12.972;2023-07-02T06:17:37;17.20;99.90
21627;DHT22;10975;47.872;12.972;2023-07-02T06:20:07;17.30;99.90
21627;DHT22;10975;47.872;12.972;2023-07-02T06:22:34;17.30;99.90
21627;DHT22;10975;47.872;12.972;2023-07-02T06:25:00;17.20;99.90
21627;DHT22;10975;47.872;12.972;2023-07-02T06:27:31;17.20;99.90
21627;DHT22;10975;47.872;12.972;2023-07-02T06:29:58;17.20;99.90
21627;DHT22;10975;47.872;12.972;2023-07-02T06:32:24;17.20;99.90
21627;DHT22;10975;47.872;12.972;2023-07-02T06:34:51;17.30;99.90
21627;DHT22;10975;47.872;12.972;2023-07-02T06:37:18;17.30;99.90
21627;DHT22;10975;47.872;12.972;2023-07-02T06:39:44;17.30;99.90
21627;DHT22;10975;47.872;12.972;2023-07-02T06:42:11;17.20;99.90
21627;DHT22;10975;47.872;12.972;2023-07-02T06:44:40;17.20;99.90
21627;DHT22;10975;47.872;12.972;2023-07-02T06:47:07;17.20;99.90
21627;DHT22;10975;47.872;12.972;2023-07-02T06:49:34;17.30;99.90
21627;DHT22;10975;47.872;12.972;2023-07-02T06:52:00;17.10;99.90
21627;DHT22;10975;47.872;12.972;2023-07-02T06:54:27;17.00;99.90
21627;DHT22;10975;47.872;12.972;2023-07-02T06:56:54;17.00;99.90
21627;DHT22;10975;47.872;12.972;2023-07-02T06:59:21;17.00;99.90
21627;DHT22;10975;47.872;12.972;2023-07-02T07:01:48;17.00;99.90
21627;DHT22;10975;47.872;12.972;2023-07-02T07:04:15;17.00;99.90
21627;DHT22;10975;47.872;12.972;2023-07-02T07:06:42;17.10;99.90
21627;DHT22;10975;47.872;12.972;2023-07-02T07:09:09;17.20;99.90
21627;DHT22;10975;47.872;12.972;2023-07-02T07:11:36;17.40;99.90
21627;DHT22;10975;47.872;12.972;2023-07-02T07:14:02;17.30;99.90
21627;DHT22;10975;47.872;12.972;2023-07-02T07:16:29;17.30;99.90
21627;DHT22;10975;47.872;12.972;2023-07-02T07:18:56;17.30;99.90
21627;DHT22;10975;47.872;12.972;2023-07-02T07:21:23;17.40;99.90
21627;DHT22;10975;47.872;12.972;2023-07-02T07:23:49;17.50;99.90
21627;DHT22;10975;47.872;12.972;2023-07-02T07:26:16;17.50;99.90
21627;DHT22;10975;47.872;12.972;2023-07-02T07:28:43;17.60;99.90
21627;DHT22;10975;47.872;12.972;2023-07-02T07:31:09;17.60;99.90
21627;DHT22;10975;47.872;12.972;2023-07-02T07:33:36;17.70;99.90
21627;DHT22;10975;47.872;12.972;2023-07-02T07:36:03;17.80;99.90
21627;DHT22;10975;47.872;12.972;2023-07-02T07:38:29;17.70;99.90
21627;DHT22;10975;47.872;12.972;2023-07-02T07:40:56;17.80;99.90
21627;DHT22;10975;47.872;12.972;2023-07-02T07:43:23;17.70;99.90
21627;DHT22;10975;47.872;12.972;2023-07-02T07:45:50;17.60;99.90
21627;DHT22;10975;47.872;12.972;2023-07-02T07:48:17;17.70;99.90
21627;DHT22;10975;47.872;12.972;2023-07-02T07:50:43;17.70;99.90
21627;DHT22;10975;47.872;12.972;2023-07-02T07:53:10;17.70;99.90
21627;DHT22;10975;47.872;12.972;2023-07-02T07:55:36;17.60;99.90
21627;DHT22;10975;47.872;12.972;2023-07-02T07:58:03;17.70;99.90
21627;DHT22;10975;47.872;12.972;2023-07-02T08:00:30;17.90;99.90
21627;DHT22;10975;47.872;12.972;2023-07-02T08:02:56;18.00;99.90
21627;DHT22;10975;47.872;12.972;2023-07-02T08:05:23;18.00;99.90
21627;DHT22;10975;47.872;12.972;2023-07-02T08:07:51;18.00;99.90
21627;DHT22;10975;47.872;12.972;2023-07-02T08:10:17;17.90;99.90
21627;DHT22;10975;47.872;12.972;2023-07-02T08:12:44;17.90;99.90
21627;DHT22;10975;47.872;12.972;2023-07-02T08:15:13;18.00;99.90
21627;DHT22;10975;47.872;12.972;2023-07-02T08:17:40;18.00;99.90
21627;DHT22;10975;47.872;12.972;2023-07-02T08:20:07;18.00;99.90
21627;DHT22;10975;47.872;12.972;2023-07-02T08:22:37;17.80;99.90
21627;DHT22;10975;47.872;12.972;2023-07-02T08:25:04;17.80;99.90
21627;DHT22;10975;47.872;12.972;2023-07-02T08:27:31;17.80;99.90
21627;DHT22;10975;47.872;12.972;2023-07-02T08:29:57;17.80;99.90
21627;DHT22;10975;47.872;12.972;2023-07-02T08:32:24;17.80;99.90
21627;DHT22;10975;47.872;12.972;2023-07-02T08:34:52;17.70;99.90
21627;DHT22;10975;47.872;12.972;2023-07-02T08:37:20;17.70;99.90
21627;DHT22;10975;47.872;12.972;2023-07-02T08:39:48;17.70;99.90
21627;DHT22;10975;47.872;12.972;2023-07-02T08:42:15;17.60;99.90
21627;DHT22;10975;47.872;12.972;2023-07-02T08:44:42;17.50;99.90
21627;DHT22;10975;47.872;12.972;2023-07-02T08:47:11;17.60;99.90
21627;DHT22;10975;47.872;12.972;2023-07-02T08:49:39;17.70;99.90
21627;DHT22;10975;47.872;12.972;2023-07-02T08:52:06;17.70;99.90
21627;DHT22;10975;47.872;12.972;2023-07-02T08:54:33;17.80;99.90
21627;DHT22;10975;47.872;12.972;2023-07-02T08:56:59;17.80;99.90
21627;DHT22;10975;47.872;12.972;2023-07-02T08:59:31;17.90;99.90
21627;DHT22;10975;47.872;12.972;2023-07-02T09:01:58;18.10;99.90
21627;DHT22;10975;47.872;12.972;2023-07-02T09:04:25;18.30;99.90
21627;DHT22;10975;47.872;12.972;2023-07-02T09:07:04;18.50;99.90
21627;DHT22;10975;47.872;12.972;2023-07-02T09:09:31;18.50;99.90
21627;DHT22;10975;47.872;12.972;2023-07-02T09:11:58;18.60;99.90
21627;DHT22;10975;47.872;12.972;2023-07-02T09:14:26;18.60;99.90
21627;DHT22;10975;47.872;12.972;2023-07-02T09:17:08;18.60;99.90
21627;DHT22;10975;47.872;12.972;2023-07-02T09:19:36;18.60;99.90
21627;DHT22;10975;47.872;12.972;2023-07-02T09:22:03;18.50;99.90
21627;DHT22;10975;47.872;12.972;2023-07-02T09:24:30;18.60;99.90
21627;DHT22;10975;47.872;12.972;2023-07-02T09:26:58;18.70;99.90
21627;DHT22;10975;47.872;12.972;2023-07-02T09:29:26;18.70;99.90
21627;DHT22;10975;47.872;12.972;2023-07-02T09:31:59;18.70;99.90
21627;DHT22;10975;47.872;12.972;2023-07-02T09:34:36;18.40;99.90
21627;DHT22;10975;47.872;12.972;2023-07-02T09:37:04;18.30;99.90
21627;DHT22;10975;47.872;12.972;2023-07-02T09:39:34;18.20;99.90
21627;DHT22;10975;47.872;12.972;2023-07-02T09:42:02;18.00;99.90
21627;DHT22;10975;47.872;12.972;2023-07-02T09:44:30;17.90;99.90
21627;DHT22;10975;47.872;12.972;2023-07-02T09:47:03;17.80;99.90
21627;DHT22;10975;47.872;12.972;2023-07-02T09:49:34;17.70;99.90
21627;DHT22;10975;47.872;12.972;2023-07-02T09:52:02;17.50;99.90
21627;DHT22;10975;47.872;12.972;2023-07-02T09:54:29;17.20;99.90
21627;DHT22;10975;47.872;12.972;2023-07-02T09:56:56;17.00;99.90
21627;DHT22;10975;47.872;12.972;2023-07-02T09:59:23;16.80;99.90
21627;DHT22;10975;47.872;12.972;2023-07-02T10:01:50;16.70;99.90
21627;DHT22;10975;47.872;12.972;2023-07-02T10:04:18;16.70;99.90
21627;DHT22;10975;47.872;12.972;2023-07-02T10:06:48;16.80;99.90
21627;DHT22;10975;47.872;12.972;2023-07-02T10:09:17;16.90;99.90
21627;DHT22;10975;47.872;12.972;2023-07-02T10:11:44;16.90;99.90
21627;DHT22;10975;47.872;12.972;2023-07-02T10:14:10;16.90;99.90
21627;DHT22;10975;47.872;12.972;2023-07-02T10:16:50;16.80;99.90
21627;DHT22;10975;47.872;12.972;2023-07-02T10:19:17;16.80;99.90
21627;DHT22;10975;47.872;12.972;2023-07-02T10:21:44;16.90;99.90
21627;DHT22;10975;47.872;12.972;2023-07-02T10:24:16;17.10;99.90
21627;DHT22;10975;47.872;12.972;2023-07-02T10:26:54;17.20;99.90
21627;DHT22;10975;47.872;12.972;2023-07-02T10:29:24;17.30;99.90
21627;DHT22;10975;47.872;12.972;2023-07-02T10:31:52;17.40;99.90
21627;DHT22;10975;47.872;12.972;2023-07-02T10:37:15;17.80;99.90
21627;DHT22;10975;47.872;12.972;2023-07-02T10:39:42;18.10;99.90
21627;DHT22;10975;47.872;12.972;2023-07-02T10:42:09;18.30;99.90
21627;DHT22;10975;47.872;12.972;2023-07-02T10:44:51;18.60;99.90
21627;DHT22;10975;47.872;12.972;2023-07-02T10:47:18;18.80;99.90
21627;DHT22;10975;47.872;12.972;2023-07-02T10:49:45;18.80;99.90
21627;DHT22;10975;47.872;12.972;2023-07-02T10:52:12;19.00;99.90
21627;DHT22;10975;47.872;12.972;2023-07-02T10:54:39;19.00;99.90
21627;DHT22;10975;47.872;12.972;2023-07-02T10:57:07;18.90;99.90
21627;DHT22;10975;47.872;12.972;2023-07-02T10:59:34;19.10;99.90
21627;DHT22;10975;47.872;12.972;2023-07-02T11:02:01;19.00;99.90
21627;DHT22;10975;47.872;12.972;2023-07-02T11:04:30;19.00;99.90
21627;DHT22;10975;47.872;12.972;2023-07-02T11:07:13;18.80;99.90
21627;DHT22;10975;47.872;12.972;2023-07-02T11:09:49;19.00;99.90
21627;DHT22;10975;47.872;12.972;2023-07-02T11:12:17;19.30;99.90
21627;DHT22;10975;47.872;12.972;2023-07-02T11:15:12;19.50;99.90
21627;DHT22;10975;47.872;12.972;2023-07-02T11:18:08;19.70;99.90
21627;DHT22;10975;47.872;12.972;2023-07-02T11:21:14;20.00;99.90
21627;DHT22;10975;47.872;12.972;2023-07-02T11:24:05;20.00;99.90
21627;DHT22;10975;47.872;12.972;2023-07-02T11:26:40;19.80;99.90
21627;DHT22;10975;47.872;12.972;2023-07-02T11:29:20;19.80;99.90
21627;DHT22;10975;47.872;12.972;2023-07-02T11:32:07;19.80;99.90
21627;DHT22;10975;47.872;12.972;2023-07-02T11:35:03;19.80;99.90
21627;DHT22;10975;47.872;12.972;2023-07-02T11:37:39;20.00;99.90
21627;DHT22;10975;47.872;12.972;2023-07-02T11:40:06;20.00;99.90
21627;DHT22;10975;47.872;12.972;2023-07-02T11:42:33;20.10;99.90
21627;DHT22;10975;47.872;12.972;2023-07-02T11:45:00;20.20;99.90
21627;DHT22;10975;47.872;12.972;2023-07-02T11:47:27;20.20;99.90
21627;DHT22;10975;47.872;12.972;2023-07-02T11:49:54;20.10;99.90
21627;DHT22;10975;47.872;12.972;2023-07-02T11:52:36;20.10;99.90
21627;DHT22;10975;47.872;12.972;2023-07-02T11:55:09;20.30;99.90
21627;DHT22;10975;47.872;12.972;2023-07-02T11:57:47;20.50;99.90
21627;DHT22;10975;47.872;12.972;2023-07-02T12:00:16;20.40;99.90
21627;DHT22;10975;47.872;12.972;2023-07-02T12:02:44;20.80;99.90
21627;DHT22;10975;47.872;12.972;2023-07-02T12:05:11;20.80;99.90
21627;DHT22;10975;47.872;12.972;2023-07-02T12:07:38;20.90;99.90
21627;DHT22;10975;47.872;12.972;2023-07-02T12:10:06;20.80;99.90
21627;DHT22;10975;47.872;12.972;2023-07-02T12:12:33;20.80;99.90
21627;DHT22;10975;47.872;12.972;2023-07-02T12:15:00;20.90;99.90
21627;DHT22;10975;47.872;12.972;2023-07-02T12:17:26;20.90;99.90
21627;DHT22;10975;47.872;12.972;2023-07-02T12:19:53;20.90;99.90
21627;DHT22;10975;47.872;12.972;2023-07-02T12:24:52;21.10;99.90
21627;DHT22;10975;47.872;12.972;2023-07-02T12:27:22;21.40;99.90
21627;DHT22;10975;47.872;12.972;2023-07-02T12:29:49;21.50;99.90
21627;DHT22;10975;47.872;12.972;2023-07-02T12:32:15;21.90;99.90
21627;DHT22;10975;47.872;12.972;2023-07-02T12:34:42;22.00;99.90
21627;DHT22;10975;47.872;12.972;2023-07-02T12:37:09;22.00;99.90
21627;DHT22;10975;47.872;12.972;2023-07-02T12:39:40;21.70;99.90
21627;DHT22;10975;47.872;12.972;2023-07-02T12:42:34;21.10;99.90
21627;DHT22;10975;47.872;12.972;2023-07-02T12:45:01;21.20;99.90
21627;DHT22;10975;47.872;12.972;2023-07-02T12:47:28;21.50;99.90
21627;DHT22;10975;47.872;12.972;2023-07-02T12:49:54;21.60;99.90
21627;DHT22;10975;47.872;12.972;2023-07-02T12:52:21;21.70;99.90
21627;DHT22;10975;47.872;12.972;2023-07-02T12:54:48;21.80;99.90
21627;DHT22;10975;47.872;12.972;2023-07-02T12:57:14;21.90;99.90
21627;DHT22;10975;47.872;12.972;2023-07-02T12:59:44;21.90;99.90
21627;DHT22;10975;47.872;12.972;2023-07-02T13:02:11;21.90;99.90
21627;DHT22;10975;47.872;12.972;2023-07-02T13:04:38;21.80;99.90
21627;DHT22;10975;47.872;12.972;2023-07-02T13:07:07;21.80;99.90
21627;DHT22;10975;47.872;12.972;2023-07-02T13:09:36;21.70;99.90
21627;DHT22;10975;47.872;12.972;2023-07-02T13:12:51;21.70;99.90
21627;DHT22;10975;47.872;12.972;2023-07-02T13:15:35;21.90;99.90
21627;DHT22;10975;47.872;12.972;2023-07-02T13:18:02;21.90;99.90
21627;DHT22;10975;47.872;12.972;2023-07-02T13:20:43;22.00;99.90
21627;DHT22;10975;47.872;12.972;2023-07-02T13:23:10;22.10;99.90
21627;DHT22;10975;47.872;12.972;2023-07-02T13:25:41;22.60;99.90
21627;DHT22;10975;47.872;12.972;2023-07-02T13:28:36;22.60;99.90
21627;DHT22;10975;47.872;12.972;2023-07-02T13:31:19;22.70;99.90
21627;DHT22;10975;47.872;12.972;2023-07-02T13:34:09;22.70;99.90
21627;DHT22;10975;47.872;12.972;2023-07-02T13:36:42;22.50;99.90
21627;DHT22;10975;47.872;12.972;2023-07-02T13:39:09;22.50;99.90
21627;DHT22;10975;47.872;12.972;2023-07-02T13:41:37;22.50;99.90
21627;DHT22;10975;47.872;12.972;2023-07-02T13:44:04;22.70;99.90
21627;DHT22;10975;47.872;12.972;2023-07-02T13:46:30;22.50;99.90
21627;DHT22;10975;47.872;12.972;2023-07-02T13:49:10;22.40;99.90
21627;DHT22;10975;47.872;12.972;2023-07-02T13:51:38;22.80;99.90
21627;DHT22;10975;47.872;12.972;2023-07-02T13:54:15;22.90;99.90
21627;DHT22;10975;47.872;12.972;2023-07-02T13:56:56;22.70;99.90
21627;DHT22;10975;47.872;12.972;2023-07-02T13:59:23;22.70;99.90
21627;DHT22;10975;47.872;12.972;2023-07-02T14:01:50;22.60;99.90
21627;DHT22;10975;47.872;12.972;2023-07-02T14:04:17;22.70;99.90
21627;DHT22;10975;47.872;12.972;2023-07-02T14:06:44;22.80;99.90
21627;DHT22;10975;47.872;12.972;2023-07-02T14:09:12;22.80;99.90
21627;DHT22;10975;47.872;12.972;2023-07-02T14:11:40;22.90;99.90
21627;DHT22;10975;47.872;12.972;2023-07-02T14:14:07;22.80;99.90
21627;DHT22;10975;47.872;12.972;2023-07-02T14:16:33;22.70;99.90
21627;DHT22;10975;47.872;12.972;2023-07-02T14:19:00;22.60;99.90
21627;DHT22;10975;47.872;12.972;2023-07-02T14:21:27;22.70;99.90
21627;DHT22;10975;47.872;12.972;2023-07-02T14:23:54;22.80;99.90
21627;DHT22;10975;47.872;12.972;2023-07-02T14:26:21;23.20;99.90
21627;DHT22;10975;47.872;12.972;2023-07-02T14:28:47;23.40;99.90
21627;DHT22;10975;47.872;12.972;2023-07-02T14:31:14;23.20;99.90
21627;DHT22;10975;47.872;12.972;2023-07-02T14:33:41;23.00;99.90
21627;DHT22;10975;47.872;12.972;2023-07-02T14:36:07;23.20;99.90
21627;DHT22;10975;47.872;12.972;2023-07-02T14:38:34;23.40;99.90
21627;DHT22;10975;47.872;12.972;2023-07-02T14:41:01;23.40;99.90
21627;DHT22;10975;47.872;12.972;2023-07-02T14:43:28;23.20;99.90
21627;DHT22;10975;47.872;12.972;2023-07-02T14:45:56;23.10;99.90
21627;DHT22;10975;47.872;12.972;2023-07-02T14:48:23;23.10;99.90
21627;DHT22;10975;47.872;12.972;2023-07-02T14:50:52;23.30;99.90
21627;DHT22;10975;47.872;12.972;2023-07-02T14:53:19;23.40;99.90
21627;DHT22;10975;47.872;12.972;2023-07-02T14:55:46;23.40;99.90
21627;DHT22;10975;47.872;12.972;2023-07-02T14:58:16;23.30;99.90
21627;DHT22;10975;47.872;12.972;2023-07-02T15:00:44;23.30;99.90
21627;DHT22;10975;47.872;12.972;2023-07-02T15:03:11;23.30;99.90
21627;DHT22;10975;47.872;12.972;2023-07-02T15:05:39;23.30;99.90
21627;DHT22;10975;47.872;12.972;2023-07-02T15:08:07;23.40;99.90
21627;DHT22;10975;47.872;12.972;2023-07-02T15:10:34;23.20;99.90
21627;DHT22;10975;47.872;12.972;2023-07-02T15:13:01;23.10;99.90
21627;DHT22;10975;47.872;12.972;2023-07-02T15:15:28;23.10;99.90
21627;DHT22;10975;47.872;12.972;2023-07-02T15:17:54;23.00;99.90
21627;DHT22;10975;47.872;12.972;2023-07-02T15:20:21;22.90;99.90
21627;DHT22;10975;47.872;12.972;2023-07-02T15:22:48;22.80;99.90
21627;DHT22;10975;47.872;12.972;2023-07-02T15:25:14;23.20;99.90
21627;DHT22;10975;47.872;12.972;2023-07-02T15:27:41;23.30;99.90
21627;DHT22;10975;47.872;12.972;2023-07-02T15:30:08;23.20;99.90